• Join FlightAware (Why Join?)
  • Login
  • US Flag 
09:59AM EST


 

Airport Tracker/Info


-or-


 

Live Flight TrackerFlight Track Log ✈ SWA580 ✈ 29-Apr-2013 ✈ KDEN - KBNA

Flight Track Log - Related Links

Times and Time Zones

All times are in EDT time to prevent confusion due to time zone crossing. See the SWA580 flight status page for this flight to view local times or setup timezone preferences in your user account.

Time Position Orientation Groundspeed Altitude Reporting Facility
EDT Latitude Longitude Course Direction KTS MPH feet Rate Location/Type
12:38PM 39.8000 -104.6500 117° Southeast 187 215 6,800  Level Denver TRACON
12:39PM 39.7667 -104.5667 117° Southeast 284 327 8,400 1,920 Climbing Denver TRACON
12:40PM 39.7669 -104.5192 90° East 294 338 9,800 1,920 Climbing Denver Center
12:41PM 39.7633 -104.3908 92° East 336 387 11,500 2,220 Climbing Denver Center
12:42PM 39.7592 -104.2572 92° East 372 428 14,500 3,240 Climbing Denver Center
12:43PM 39.7542 -104.1103 92° East 377 434 18,300 3,000 Climbing Denver Center
12:44PM 39.7497 -103.9672 92° East 395 455 20,700 2,280 Climbing Denver Center
12:45PM 39.7439 -103.8042 93° East 420 483 23,100 2,040 Climbing Denver Center
12:46PM 39.7353 -103.6611 94° East 420 483 25,000 1,860 Climbing Denver Center
12:47PM 39.7222 -103.4975 96° East 446 513 27,000 1,980 Climbing Denver Center
12:48PM 39.7081 -103.3014 95° East 464 534 29,200 1,920 Climbing Denver Center
12:49PM 39.6919 -103.1317 97° East 469 540 31,000 1,860 Climbing Denver Center
12:50PM 39.6783 -102.9617 96° East 468 539 33,100 1,800 Climbing Denver Center
12:51PM 39.6644 -102.7953 96° East 462 532 34,800 1,440 Climbing Denver Center
12:52PM 39.6492 -102.6214 96° East 459 528 36,200 1,080 Climbing Denver Center
12:53PM 39.6350 -102.4636 97° East 461 531 37,100 840 Climbing Denver Center
12:54PM 39.6178 -102.2761 97° East 469 540 38,000 900 Climbing Denver Center
12:55PM 39.6039 -102.1164 96° East 467 537 39,000 480 Climbing Denver Center
12:56PM 39.5869 -101.9308 97° East 466 536 39,000  Level Denver Center
12:57PM 39.5756 -101.7767 95° East 456 525 39,000  Level Denver Center
12:58PM 39.5608 -101.5942 96° East 457 526 39,000  Level Denver Center
12:59PM 39.5478 -101.4383 96° East 458 527 39,000  Level Denver Center
01:00PM 39.5228 -101.2589 100° East 459 528 39,000  Level Denver Center
01:01PM 39.5003 -101.1036 101° East 460 529 39,000  Level Denver Center
01:02PM 39.4725 -100.9206 101° East 464 534 39,000  Level Denver Center
01:03PM 39.4492 -100.7642 101° East 465 535 39,000  Level Denver Center
01:05PM 39.4208 -100.5800 101° East 468 539 39,000  Level Denver Center
01:06PM 39.3964 -100.4200 101° East 473 544 39,000  Level Denver Center
01:07PM 39.3672 -100.2367 102° East 469 540 39,000  Level Denver Center
01:08PM 39.3425 -100.0794 101° East 468 539 39,000  Level Denver Center
01:09PM 39.3136 -99.8933 101° East 471 542 39,000  Level Denver Center
01:10PM 39.2869 -99.7347 102° East 473 544 39,000  Level Denver Center
01:11PM 39.2628 -99.5781 101° East 468 539 39,000  Level Denver Center
01:12PM 39.2328 -99.3969 102° East 466 536 39,000  Level Denver Center
01:13PM 39.2075 -99.2417 102° East 465 535 39,000  Level Denver Center
01:14PM 39.1756 -99.0606 103° East 463 533 39,000  Level Denver Center
01:15PM 39.1475 -98.8878 102° East 470 541 39,000  Level Denver Center
01:16PM 39.1200 -98.7261 102° East 467 537 39,000  Level Denver Center
01:17PM 39.1003 -98.6125 103° East 467 537 39,000  Level Kansas City Center
01:18PM 39.0714 -98.4494 103° East 467 537 39,000  Level Kansas City Center
01:19PM 39.0439 -98.2861 102° East 465 535 39,000  Level Kansas City Center
01:20PM 39.0150 -98.1244 103° East 463 533 39,000  Level Kansas City Center
01:21PM 38.9867 -97.9639 103° East 461 531 39,000  Level Kansas City Center
01:22PM 38.9517 -97.7664 103° East 460 529 39,000  Level Kansas City Center
01:23PM 38.9239 -97.6128 103° East 459 528 39,000  Level Kansas City Center
01:24PM 38.8917 -97.4481 104° East 466 536 39,000  Level Kansas City Center
01:25PM 38.8600 -97.2878 104° East 463 533 39,000  Level Kansas City Center
01:26PM 38.8289 -97.1267 104° East 464 534 39,000  Level Kansas City Center
01:27PM 38.7969 -96.9658 104° East 465 535 39,000  Level Kansas City Center
01:28PM 38.7644 -96.8050 104° East 465 535 39,000  Level Kansas City Center
01:29PM 38.7244 -96.6111 105° East 468 539 39,000  Level Kansas City Center
01:30PM 38.6947 -96.4617 104° East 465 535 39,000  Level Kansas City Center
01:31PM 38.6567 -96.2819 105° East 470 541 39,000  Level Kansas City Center
01:32PM 38.6258 -96.1289 104° East 466 536 39,000  Level Kansas City Center
01:33PM 38.5881 -95.9489 105° East 470 541 39,000  Level Kansas City Center
01:34PM 38.5564 -95.7961 105° East 469 540 39,000  Level Kansas City Center
01:35PM 38.5189 -95.6192 105° East 465 535 39,000  Level Kansas City Center
01:36PM 38.4861 -95.4678 105° East 465 535 39,000  Level Kansas City Center
01:37PM 38.4481 -95.2906 105° East 465 535 39,000  Level Kansas City Center
01:38PM 38.4156 -95.1386 105° East 465 535 39,000  Level Kansas City Center
01:39PM 38.3767 -94.9631 106° East 465 535 39,000  Level Kansas City Center
01:40PM 38.3442 -94.8119 105° East 463 533 39,000  Level Kansas City Center
01:41PM 38.3047 -94.6378 106° East 461 531 39,000  Level Kansas City Center
01:42PM 38.2719 -94.4853 105° East 465 535 39,000  Level Kansas City Center
01:43PM 38.2497 -94.3064 99° East 460 529 39,000  Level Kansas City Center
01:45PM 38.2319 -94.1486 98° East 465 535 39,000  Level Kansas City Center
01:46PM 38.2103 -93.9856 100° East 462 532 39,000  Level Kansas City Center
01:47PM 38.1892 -93.8236 99° East 463 533 39,000  Level Kansas City Center
01:48PM 38.1686 -93.6614 99° East 464 534 39,000  Level Kansas City Center
01:49PM 38.1436 -93.4689 99° East 462 532 39,000  Level Kansas City Center
01:50PM 38.1206 -93.3078 100° East 462 532 39,000  Level Kansas City Center
01:51PM 38.1014 -93.1461 99° East 463 533 39,000  Level Kansas City Center
01:52PM 38.0794 -92.9856 100° East 461 531 39,000  Level Kansas City Center
01:53PM 38.0575 -92.8250 100° East 462 532 39,000  Level Kansas City Center
01:54PM 38.0372 -92.6669 99° East 462 532 39,000  Level Kansas City Center
01:55PM 38.0139 -92.5083 101° East 462 532 39,000  Level Kansas City Center
01:56PM 37.9867 -92.3194 100° East 458 527 39,000  Level Kansas City Center
01:57PM 37.9653 -92.1633 100° East 456 525 39,000  Level Kansas City Center
01:58PM 37.9439 -92.0175 100° East 453 521 39,000  Level Kansas City Center
01:59PM 37.9158 -91.8281 101° East 454 522 39,000  Level Kansas City Center
02:00PM 37.8939 -91.6689 100° East 458 527 39,000  Level Kansas City Center
02:01PM 37.8708 -91.5092 100° East 460 529 39,000  Level Kansas City Center
02:02PM 37.8458 -91.3506 101° East 459 528 39,000  Level Kansas City Center
02:03PM 37.8228 -91.1919 100° East 458 527 39,000  Level Kansas City Center
02:04PM 37.7981 -91.0319 101° East 456 525 39,000  Level Kansas City Center
02:05PM 37.7739 -90.8747 101° East 456 525 39,000  Level Kansas City Center
02:06PM 37.7492 -90.7189 101° East 455 524 39,000 -300 Level Kansas City Center
02:07PM 37.7189 -90.5281 101° East 460 529 38,500 -720 Descending Kansas City Center
02:08PM 37.6950 -90.3714 101° East 460 529 37,600 -960 Descending Kansas City Center
02:09PM 37.6700 -90.2153 101° East 459 528 36,600 -960 Descending Kansas City Center
02:10PM 37.6422 -90.0592 103° East 459 528 35,700 -960 Descending Kansas City Center
02:11PM 37.6133 -89.9039 103° East 459 528 34,700 -1,080 Descending Kansas City Center
02:12PM 37.5772 -89.7058 103° East 467 537 33,500 -840 Descending Kansas City Center
02:13PM 37.5492 -89.5439 102° East 471 542 33,000 -300 Descending Kansas City Center
02:14PM 37.5186 -89.3833 103° East 471 542 33,000  Level Kansas City Center
02:16PM 37.4894 -89.2247 103° East 467 537 33,000  Level Kansas City Center
02:17PM 37.4583 -89.0644 104° East 468 539 33,000  Level Kansas City Center
02:17PM 37.4428 -88.9750 102° East 468 539 33,000  Level Memphis Center
02:18PM 37.4119 -88.8217 104° East 468 539 33,000  Level Memphis Center
02:19PM 37.3828 -88.6603 103° East 468 539 33,000 -300 Level Memphis Center
02:20PM 37.3533 -88.4992 103° East 468 539 32,400 -840 Descending Memphis Center
02:21PM 37.3217 -88.3408 104° East 468 539 31,400 -1,020 Descending Memphis Center
02:22PM 37.2919 -88.1825 103° East 468 539 30,400 -1,020 Descending Memphis Center
02:23PM 37.2578 -88.0219 105° East 468 539 29,400 -1,020 Descending Memphis Center
02:24PM 37.2194 -87.8667 107° East 468 539 28,400 -1,020 Descending Memphis Center
02:25PM 37.1522 -87.7361 123° Southeast 447 514 27,400 -900 Descending Memphis Center
02:26PM 37.0933 -87.6211 123° Southeast 447 514 26,600 -1,260 Descending Memphis Center
02:27PM 37.0281 -87.4961 123° Southeast 442 509 24,900 -2,160 Descending Memphis Center
02:28PM 36.9650 -87.3839 125° Southeast 416 479 22,600 -2,280 Descending Memphis Center
02:29PM 36.9014 -87.2567 122° Southeast 410 472 20,400 -2,040 Descending Memphis Center
02:30PM 36.8422 -87.1450 123° Southeast 398 458 18,300 -2,100 Descending Memphis Center
02:31PM 36.7589 -87.0653 143° Southeast 371 427 16,200 -2,100 Descending Memphis Center
02:32PM 36.6614 -87.0019 152° Southeast 371 427 14,100 -2,100 Descending Memphis Center
02:33PM 36.5725 -86.9489 154° Southeast 360 414 12,000 -1,980 Descending Memphis Center
02:34PM 36.4875 -86.8958 153° Southeast 344 396 10,200 -1,320 Descending Memphis Center
02:35PM 36.4092 -86.8500 155° Southeast 325 374 9,400 -1,080 Descending Memphis Center
02:36PM 36.3411 -86.8067 153° Southeast 309 356 8,100 -1,440 Descending Memphis Center
02:37PM 36.2669 -86.7636 155° Southeast 297 342 6,600 -1,320 Descending Memphis Center
02:38PM 36.1942 -86.7667 182° South 276 318 5,500 -840 Descending Memphis Center
02:39PM 36.1261 -86.7903 196° South 262 302 5,000 -900 Descending Memphis Center
02:40PM 36.0600 -86.8189 199° South 239 275 3,800 -1,080 Descending Memphis Center
02:41PM 36.0294 -86.7689 127° Southeast 158 182 2,900 -1,080 Descending Memphis Center
02:42PM 36.0506 -86.7089 66° East 123 142 1,700 -1,080 Descending Memphis Center
02:43PM 36.0919 -86.6917 19° North 107 123 800 -540 Descending Memphis Center
02:44PM 36.1097 -86.6653 50° Northeast 113 130 700 -120 Descending Memphis Center
02:46PM 36.1167 -86.6667 61° Northeast  Level FlightAware Approximate
02:53PM 36.1245 -86.6782 61° Northeast  Level Estimated
02:54PM 36.1245 -86.6782 61° Northeast  Level Estimated
02:55PM 36.1245 -86.6782 61° Northeast  Level Estimated
02:56PM 36.1245 -86.6782 61° Northeast  Level Estimated
02:57PM 36.1245 -86.6782 61° Northeast  Level Estimated
02:58PM 36.1245 -86.6782 61° Northeast  Level Estimated
02:59PM 36.1245 -86.6782 61° Northeast  Level Estimated